sensor_id;sensor_type;location;lat;lon;timestamp;P1;durP1;ratioP1;P2;durP2;ratioP2
74821;SDS011;63353;48.702;8.884;2023-08-24T00:00:44;37.10;;;34.77;;
74821;SDS011;63353;48.702;8.884;2023-08-24T00:03:10;41.30;;;38.53;;
74821;SDS011;63353;48.702;8.884;2023-08-24T00:05:49;52.80;;;49.73;;
74821;SDS011;63353;48.702;8.884;2023-08-24T00:08:18;53.07;;;49.97;;
74821;SDS011;63353;48.702;8.884;2023-08-24T00:10:50;47.73;;;44.90;;
74821;SDS011;63353;48.702;8.884;2023-08-24T00:13:15;52.00;;;49.00;;
74821;SDS011;63353;48.702;8.884;2023-08-24T00:15:47;48.90;;;46.00;;
74821;SDS011;63353;48.702;8.884;2023-08-24T00:18:12;50.67;;;47.67;;
74821;SDS011;63353;48.702;8.884;2023-08-24T00:20:38;53.67;;;50.43;;
74821;SDS011;63353;48.702;8.884;2023-08-24T00:23:10;58.40;;;55.07;;
74821;SDS011;63353;48.702;8.884;2023-08-24T00:25:45;54.67;;;51.53;;
74821;SDS011;63353;48.702;8.884;2023-08-24T00:28:10;47.80;;;44.90;;
74821;SDS011;63353;48.702;8.884;2023-08-24T00:30:48;49.10;;;46.10;;
74821;SDS011;63353;48.702;8.884;2023-08-24T00:33:32;45.00;;;42.20;;
74821;SDS011;63353;48.702;8.884;2023-08-24T00:36:01;47.80;;;44.73;;
74821;SDS011;63353;48.702;8.884;2023-08-24T00:38:27;47.63;;;44.57;;
74821;SDS011;63353;48.702;8.884;2023-08-24T00:40:56;53.43;;;50.13;;
74821;SDS011;63353;48.702;8.884;2023-08-24T00:43:26;50.20;;;47.07;;
74821;SDS011;63353;48.702;8.884;2023-08-24T00:45:53;49.73;;;46.60;;
74821;SDS011;63353;48.702;8.884;2023-08-24T00:48:21;50.47;;;47.53;;
74821;SDS011;63353;48.702;8.884;2023-08-24T00:51:02;49.83;;;46.73;;
74821;SDS011;63353;48.702;8.884;2023-08-24T00:53:29;41.40;;;38.60;;
74821;SDS011;63353;48.702;8.884;2023-08-24T00:55:56;53.83;;;50.47;;
74821;SDS011;63353;48.702;8.884;2023-08-24T00:58:23;52.23;;;49.07;;
74821;SDS011;63353;48.702;8.884;2023-08-24T01:00:49;63.97;;;60.47;;
74821;SDS011;63353;48.702;8.884;2023-08-24T01:03:23;75.47;;;71.30;;
74821;SDS011;63353;48.702;8.884;2023-08-24T01:05:49;83.13;;;78.87;;
74821;SDS011;63353;48.702;8.884;2023-08-24T01:08:16;73.10;;;68.67;;
74821;SDS011;63353;48.702;8.884;2023-08-24T01:13:39;84.70;;;79.80;;
74821;SDS011;63353;48.702;8.884;2023-08-24T01:16:16;61.17;;;57.47;;
74821;SDS011;63353;48.702;8.884;2023-08-24T01:18:44;69.33;;;65.03;;
74821;SDS011;63353;48.702;8.884;2023-08-24T01:21:16;79.43;;;74.67;;
74821;SDS011;63353;48.702;8.884;2023-08-24T01:23:52;87.80;;;83.37;;
74821;SDS011;63353;48.702;8.884;2023-08-24T01:26:28;83.83;;;79.40;;
74821;SDS011;63353;48.702;8.884;2023-08-24T01:28:54;82.97;;;78.77;;
74821;SDS011;63353;48.702;8.884;2023-08-24T01:31:21;74.63;;;70.73;;
74821;SDS011;63353;48.702;8.884;2023-08-24T01:33:49;60.23;;;56.83;;
74821;SDS011;63353;48.702;8.884;2023-08-24T01:36:15;77.63;;;73.17;;
74821;SDS011;63353;48.702;8.884;2023-08-24T01:38:54;59.93;;;56.53;;
74821;SDS011;63353;48.702;8.884;2023-08-24T01:41:43;81.03;;;76.73;;
74821;SDS011;63353;48.702;8.884;2023-08-24T01:44:14;86.87;;;82.40;;
74821;SDS011;63353;48.702;8.884;2023-08-24T01:46:48;88.00;;;83.53;;
74821;SDS011;63353;48.702;8.884;2023-08-24T01:49:17;88.97;;;84.43;;
74821;SDS011;63353;48.702;8.884;2023-08-24T01:51:43;90.80;;;85.47;;
74821;SDS011;63353;48.702;8.884;2023-08-24T01:54:10;96.20;;;91.20;;
74821;SDS011;63353;48.702;8.884;2023-08-24T01:56:40;89.33;;;84.63;;
74821;SDS011;63353;48.702;8.884;2023-08-24T01:59:05;98.40;;;93.53;;
74821;SDS011;63353;48.702;8.884;2023-08-24T02:01:37;107.40;;;101.93;;
74821;SDS011;63353;48.702;8.884;2023-08-24T02:04:05;111.17;;;105.57;;
74821;SDS011;63353;48.702;8.884;2023-08-24T02:06:31;110.27;;;104.83;;
74821;SDS011;63353;48.702;8.884;2023-08-24T02:09:03;121.27;;;115.37;;
74821;SDS011;63353;48.702;8.884;2023-08-24T02:11:28;124.97;;;118.90;;
74821;SDS011;63353;48.702;8.884;2023-08-24T02:13:54;125.97;;;119.80;;
74821;SDS011;63353;48.702;8.884;2023-08-24T02:16:25;121.10;;;115.17;;
74821;SDS011;63353;48.702;8.884;2023-08-24T02:19:00;127.20;;;121.03;;
74821;SDS011;63353;48.702;8.884;2023-08-24T02:21:29;128.10;;;122.00;;
74821;SDS011;63353;48.702;8.884;2023-08-24T02:24:01;145.70;;;138.77;;
74821;SDS011;63353;48.702;8.884;2023-08-24T02:26:29;151.57;;;144.27;;
74821;SDS011;63353;48.702;8.884;2023-08-24T02:29:01;142.37;;;135.20;;
74821;SDS011;63353;48.702;8.884;2023-08-24T02:31:30;156.47;;;149.03;;
74821;SDS011;63353;48.702;8.884;2023-08-24T02:33:55;153.97;;;146.60;;
74821;SDS011;63353;48.702;8.884;2023-08-24T02:36:21;158.57;;;151.27;;
74821;SDS011;63353;48.702;8.884;2023-08-24T02:38:50;130.30;;;123.90;;
74821;SDS011;63353;48.702;8.884;2023-08-24T02:41:15;145.20;;;138.27;;
74821;SDS011;63353;48.702;8.884;2023-08-24T02:43:44;150.37;;;143.17;;
74821;SDS011;63353;48.702;8.884;2023-08-24T02:46:09;155.80;;;148.50;;
74821;SDS011;63353;48.702;8.884;2023-08-24T02:48:44;152.47;;;145.20;;
74821;SDS011;63353;48.702;8.884;2023-08-24T02:51:10;156.30;;;148.90;;
74821;SDS011;63353;48.702;8.884;2023-08-24T02:53:42;152.60;;;144.80;;
74821;SDS011;63353;48.702;8.884;2023-08-24T02:56:14;156.53;;;149.23;;
74821;SDS011;63353;48.702;8.884;2023-08-24T02:58:40;139.03;;;132.27;;
74821;SDS011;63353;48.702;8.884;2023-08-24T03:01:06;144.50;;;137.63;;
74821;SDS011;63353;48.702;8.884;2023-08-24T03:03:32;128.50;;;122.33;;
74821;SDS011;63353;48.702;8.884;2023-08-24T03:06:02;135.37;;;129.17;;
74821;SDS011;63353;48.702;8.884;2023-08-24T03:08:34;147.60;;;140.73;;
74821;SDS011;63353;48.702;8.884;2023-08-24T03:11:01;153.07;;;146.20;;
74821;SDS011;63353;48.702;8.884;2023-08-24T03:13:28;144.80;;;138.13;;
74821;SDS011;63353;48.702;8.884;2023-08-24T03:15:55;144.97;;;138.43;;
74821;SDS011;63353;48.702;8.884;2023-08-24T03:18:21;160.53;;;153.37;;
74821;SDS011;63353;48.702;8.884;2023-08-24T03:20:47;154.97;;;147.77;;
74821;SDS011;63353;48.702;8.884;2023-08-24T03:23:20;160.90;;;153.47;;
74821;SDS011;63353;48.702;8.884;2023-08-24T03:25:46;148.47;;;141.33;;
74821;SDS011;63353;48.702;8.884;2023-08-24T03:28:12;158.23;;;150.83;;
74821;SDS011;63353;48.702;8.884;2023-08-24T03:30:38;150.10;;;142.90;;
74821;SDS011;63353;48.702;8.884;2023-08-24T03:33:09;145.17;;;138.10;;
74821;SDS011;63353;48.702;8.884;2023-08-24T03:35:35;149.53;;;142.53;;
74821;SDS011;63353;48.702;8.884;2023-08-24T03:38:01;141.57;;;134.97;;
74821;SDS011;63353;48.702;8.884;2023-08-24T03:40:34;172.00;;;164.27;;
74821;SDS011;63353;48.702;8.884;2023-08-24T03:43:02;136.33;;;129.67;;
74821;SDS011;63353;48.702;8.884;2023-08-24T03:45:28;139.33;;;132.60;;
74821;SDS011;63353;48.702;8.884;2023-08-24T03:47:53;166.30;;;158.47;;
74821;SDS011;63353;48.702;8.884;2023-08-24T03:50:22;153.97;;;146.77;;
74821;SDS011;63353;48.702;8.884;2023-08-24T03:52:49;159.60;;;152.40;;
74821;SDS011;63353;48.702;8.884;2023-08-24T03:55:16;159.00;;;151.87;;
74821;SDS011;63353;48.702;8.884;2023-08-24T03:57:44;149.63;;;142.70;;
74821;SDS011;63353;48.702;8.884;2023-08-24T04:00:10;142.90;;;136.07;;
74821;SDS011;63353;48.702;8.884;2023-08-24T04:02:46;146.57;;;139.57;;
74821;SDS011;63353;48.702;8.884;2023-08-24T04:05:12;152.33;;;145.23;;
74821;SDS011;63353;48.702;8.884;2023-08-24T04:07:37;146.27;;;139.43;;
74821;SDS011;63353;48.702;8.884;2023-08-24T04:10:04;158.60;;;151.13;;
74821;SDS011;63353;48.702;8.884;2023-08-24T04:12:31;137.67;;;131.00;;
74821;SDS011;63353;48.702;8.884;2023-08-24T04:14:57;152.33;;;145.30;;
74821;SDS011;63353;48.702;8.884;2023-08-24T04:17:23;173.17;;;165.23;;
74821;SDS011;63353;48.702;8.884;2023-08-24T04:19:49;162.57;;;155.13;;
74821;SDS011;63353;48.702;8.884;2023-08-24T04:22:15;156.03;;;148.63;;
74821;SDS011;63353;48.702;8.884;2023-08-24T04:24:41;162.57;;;155.10;;
74821;SDS011;63353;48.702;8.884;2023-08-24T04:27:06;153.67;;;146.70;;
74821;SDS011;63353;48.702;8.884;2023-08-24T04:29:32;160.40;;;153.20;;
74821;SDS011;63353;48.702;8.884;2023-08-24T04:32:01;159.90;;;152.50;;
74821;SDS011;63353;48.702;8.884;2023-08-24T04:34:26;161.87;;;154.57;;
74821;SDS011;63353;48.702;8.884;2023-08-24T04:36:52;163.17;;;155.80;;
74821;SDS011;63353;48.702;8.884;2023-08-24T04:39:19;143.43;;;136.67;;
74821;SDS011;63353;48.702;8.884;2023-08-24T04:41:45;157.87;;;150.30;;
74821;SDS011;63353;48.702;8.884;2023-08-24T04:44:10;130.07;;;123.87;;
74821;SDS011;63353;48.702;8.884;2023-08-24T04:46:36;138.27;;;131.60;;
74821;SDS011;63353;48.702;8.884;2023-08-24T04:49:02;132.13;;;125.83;;
74821;SDS011;63353;48.702;8.884;2023-08-24T04:51:28;121.23;;;115.37;;
74821;SDS011;63353;48.702;8.884;2023-08-24T04:53:54;113.53;;;107.47;;
74821;SDS011;63353;48.702;8.884;2023-08-24T04:56:19;143.00;;;136.50;;
74821;SDS011;63353;48.702;8.884;2023-08-24T04:58:51;140.73;;;134.03;;
74821;SDS011;63353;48.702;8.884;2023-08-24T05:01:22;97.87;;;92.70;;
74821;SDS011;63353;48.702;8.884;2023-08-24T05:03:48;136.70;;;129.83;;
74821;SDS011;63353;48.702;8.884;2023-08-24T05:06:13;141.23;;;134.30;;
74821;SDS011;63353;48.702;8.884;2023-08-24T05:08:39;149.07;;;141.83;;
74821;SDS011;63353;48.702;8.884;2023-08-24T05:11:12;174.43;;;166.33;;
74821;SDS011;63353;48.702;8.884;2023-08-24T05:13:39;129.33;;;123.03;;
74821;SDS011;63353;48.702;8.884;2023-08-24T05:16:11;142.23;;;135.43;;
74821;SDS011;63353;48.702;8.884;2023-08-24T05:18:37;173.50;;;165.30;;
74821;SDS011;63353;48.702;8.884;2023-08-24T05:21:03;153.83;;;146.53;;
74821;SDS011;63353;48.702;8.884;2023-08-24T05:23:30;154.23;;;146.73;;
74821;SDS011;63353;48.702;8.884;2023-08-24T05:25:59;154.63;;;147.43;;
74821;SDS011;63353;48.702;8.884;2023-08-24T05:28:26;160.30;;;153.00;;
74821;SDS011;63353;48.702;8.884;2023-08-24T05:30:53;117.60;;;111.70;;
74821;SDS011;63353;48.702;8.884;2023-08-24T05:33:19;134.47;;;127.73;;
74821;SDS011;63353;48.702;8.884;2023-08-24T05:35:46;146.00;;;138.97;;
74821;SDS011;63353;48.702;8.884;2023-08-24T05:38:12;147.37;;;140.37;;
74821;SDS011;63353;48.702;8.884;2023-08-24T05:40:38;145.27;;;138.17;;
74821;SDS011;63353;48.702;8.884;2023-08-24T05:43:04;85.60;;;80.97;;
74821;SDS011;63353;48.702;8.884;2023-08-24T05:45:30;88.57;;;83.90;;
74821;SDS011;63353;48.702;8.884;2023-08-24T05:47:56;122.63;;;116.67;;
74821;SDS011;63353;48.702;8.884;2023-08-24T05:50:22;36.00;;;33.53;;
74821;SDS011;63353;48.702;8.884;2023-08-24T05:52:48;39.13;;;36.67;;
74821;SDS011;63353;48.702;8.884;2023-08-24T05:55:13;39.50;;;36.77;;
74821;SDS011;63353;48.702;8.884;2023-08-24T05:57:39;36.53;;;34.13;;
74821;SDS011;63353;48.702;8.884;2023-08-24T06:00:05;43.47;;;40.70;;
74821;SDS011;63353;48.702;8.884;2023-08-24T06:02:38;37.63;;;34.80;;
74821;SDS011;63353;48.702;8.884;2023-08-24T06:05:05;50.80;;;47.80;;
74821;SDS011;63353;48.702;8.884;2023-08-24T06:07:31;46.77;;;44.03;;
74821;SDS011;63353;48.702;8.884;2023-08-24T06:09:57;42.23;;;39.53;;
74821;SDS011;63353;48.702;8.884;2023-08-24T06:12:23;64.60;;;60.97;;
74821;SDS011;63353;48.702;8.884;2023-08-24T06:14:49;46.43;;;43.70;;
74821;SDS011;63353;48.702;8.884;2023-08-24T06:17:14;54.53;;;51.47;;
74821;SDS011;63353;48.702;8.884;2023-08-24T06:19:40;64.73;;;61.33;;
74821;SDS011;63353;48.702;8.884;2023-08-24T06:22:06;83.70;;;79.60;;
74821;SDS011;63353;48.702;8.884;2023-08-24T06:24:32;83.50;;;79.37;;
74821;SDS011;63353;48.702;8.884;2023-08-24T06:26:57;74.60;;;70.77;;
74821;SDS011;63353;48.702;8.884;2023-08-24T06:29:23;63.70;;;59.90;;
74821;SDS011;63353;48.702;8.884;2023-08-24T06:31:49;53.00;;;49.80;;
74821;SDS011;63353;48.702;8.884;2023-08-24T06:34:14;80.03;;;75.83;;
74821;SDS011;63353;48.702;8.884;2023-08-24T06:36:40;62.27;;;58.83;;
74821;SDS011;63353;48.702;8.884;2023-08-24T06:39:05;82.77;;;78.43;;
74821;SDS011;63353;48.702;8.884;2023-08-24T06:41:34;68.10;;;64.40;;
74821;SDS011;63353;48.702;8.884;2023-08-24T06:44:01;79.47;;;75.43;;
74821;SDS011;63353;48.702;8.884;2023-08-24T06:46:27;68.97;;;64.97;;
74821;SDS011;63353;48.702;8.884;2023-08-24T06:48:52;50.97;;;47.77;;
74821;SDS011;63353;48.702;8.884;2023-08-24T06:51:21;51.37;;;48.27;;
74821;SDS011;63353;48.702;8.884;2023-08-24T06:53:46;50.77;;;47.70;;
74821;SDS011;63353;48.702;8.884;2023-08-24T06:56:13;47.60;;;44.73;;
74821;SDS011;63353;48.702;8.884;2023-08-24T06:58:47;41.60;;;39.07;;
74821;SDS011;63353;48.702;8.884;2023-08-24T07:01:13;34.53;;;32.33;;
74821;SDS011;63353;48.702;8.884;2023-08-24T07:03:39;39.97;;;37.50;;
74821;SDS011;63353;48.702;8.884;2023-08-24T07:06:05;42.27;;;39.73;;
74821;SDS011;63353;48.702;8.884;2023-08-24T07:08:32;38.03;;;35.53;;
74821;SDS011;63353;48.702;8.884;2023-08-24T07:10:58;50.50;;;47.50;;
74821;SDS011;63353;48.702;8.884;2023-08-24T07:13:23;61.73;;;58.43;;
74821;SDS011;63353;48.702;8.884;2023-08-24T07:15:49;55.53;;;52.70;;
74821;SDS011;63353;48.702;8.884;2023-08-24T07:18:16;56.10;;;52.87;;
74821;SDS011;63353;48.702;8.884;2023-08-24T07:20:42;46.47;;;43.77;;
74821;SDS011;63353;48.702;8.884;2023-08-24T07:23:10;39.10;;;36.70;;
74821;SDS011;63353;48.702;8.884;2023-08-24T07:25:36;39.53;;;37.10;;
74821;SDS011;63353;48.702;8.884;2023-08-24T07:28:02;54.00;;;51.23;;
74821;SDS011;63353;48.702;8.884;2023-08-24T07:30:28;41.60;;;39.20;;
74821;SDS011;63353;48.702;8.884;2023-08-24T07:32:54;42.97;;;40.57;;
74821;SDS011;63353;48.702;8.884;2023-08-24T07:35:20;32.90;;;31.03;;
74821;SDS011;63353;48.702;8.884;2023-08-24T07:37:49;28.10;;;26.20;;
74821;SDS011;63353;48.702;8.884;2023-08-24T07:40:15;30.13;;;28.33;;
74821;SDS011;63353;48.702;8.884;2023-08-24T07:45:10;24.87;;;23.20;;
74821;SDS011;63353;48.702;8.884;2023-08-24T07:47:37;15.30;;;14.30;;
74821;SDS011;63353;48.702;8.884;2023-08-24T07:50:02;15.47;;;14.03;;
74821;SDS011;63353;48.702;8.884;2023-08-24T07:52:28;14.63;;;13.33;;
74821;SDS011;63353;48.702;8.884;2023-08-24T07:54:58;14.40;;;13.20;;
74821;SDS011;63353;48.702;8.884;2023-08-24T07:57:25;14.70;;;13.40;;
74821;SDS011;63353;48.702;8.884;2023-08-24T07:59:54;14.97;;;13.80;;
74821;SDS011;63353;48.702;8.884;2023-08-24T08:02:19;14.20;;;13.00;;
74821;SDS011;63353;48.702;8.884;2023-08-24T08:04:45;14.75;;;13.73;;
74821;SDS011;63353;48.702;8.884;2023-08-24T08:07:11;14.53;;;13.43;;
74821;SDS011;63353;48.702;8.884;2023-08-24T08:09:37;13.43;;;12.33;;
74821;SDS011;63353;48.702;8.884;2023-08-24T08:12:03;14.32;;;13.00;;
74821;SDS011;63353;48.702;8.884;2023-08-24T08:14:29;14.15;;;13.18;;
74821;SDS011;63353;48.702;8.884;2023-08-24T08:16:55;14.73;;;13.63;;
74821;SDS011;63353;48.702;8.884;2023-08-24T08:19:21;14.10;;;13.10;;
74821;SDS011;63353;48.702;8.884;2023-08-24T08:21:51;15.30;;;13.80;;
74821;SDS011;63353;48.702;8.884;2023-08-24T08:24:17;14.05;;;12.85;;
74821;SDS011;63353;48.702;8.884;2023-08-24T08:26:43;13.38;;;12.38;;
74821;SDS011;63353;48.702;8.884;2023-08-24T08:29:08;13.07;;;12.18;;
74821;SDS011;63353;48.702;8.884;2023-08-24T08:31:34;14.02;;;13.02;;
74821;SDS011;63353;48.702;8.884;2023-08-24T08:34:00;15.30;;;14.05;;
74821;SDS011;63353;48.702;8.884;2023-08-24T08:36:26;13.90;;;12.90;;
74821;SDS011;63353;48.702;8.884;2023-08-24T08:38:52;13.57;;;12.50;;
74821;SDS011;63353;48.702;8.884;2023-08-24T08:41:21;13.23;;;12.25;;
74821;SDS011;63353;48.702;8.884;2023-08-24T08:43:49;12.95;;;11.88;;
74821;SDS011;63353;48.702;8.884;2023-08-24T08:46:18;14.40;;;13.20;;
74821;SDS011;63353;48.702;8.884;2023-08-24T08:48:44;14.25;;;13.07;;
74821;SDS011;63353;48.702;8.884;2023-08-24T08:51:15;13.57;;;12.48;;
74821;SDS011;63353;48.702;8.884;2023-08-24T08:53:42;13.82;;;12.88;;
74821;SDS011;63353;48.702;8.884;2023-08-24T08:56:08;12.75;;;11.85;;
74821;SDS011;63353;48.702;8.884;2023-08-24T08:58:34;13.85;;;12.85;;
74821;SDS011;63353;48.702;8.884;2023-08-24T09:01:02;13.77;;;12.45;;
74821;SDS011;63353;48.702;8.884;2023-08-24T09:03:29;13.40;;;12.38;;
74821;SDS011;63353;48.702;8.884;2023-08-24T09:05:57;14.27;;;13.15;;
74821;SDS011;63353;48.702;8.884;2023-08-24T09:08:22;14.63;;;13.40;;
74821;SDS011;63353;48.702;8.884;2023-08-24T09:10:51;13.05;;;12.15;;
74821;SDS011;63353;48.702;8.884;2023-08-24T09:13:17;13.63;;;12.55;;
74821;SDS011;63353;48.702;8.884;2023-08-24T09:15:46;13.60;;;12.70;;
74821;SDS011;63353;48.702;8.884;2023-08-24T09:18:11;14.80;;;13.88;;
74821;SDS011;63353;48.702;8.884;2023-08-24T09:20:37;14.50;;;13.40;;
74821;SDS011;63353;48.702;8.884;2023-08-24T09:23:10;14.48;;;13.45;;
74821;SDS011;63353;48.702;8.884;2023-08-24T09:25:45;15.52;;;14.20;;
74821;SDS011;63353;48.702;8.884;2023-08-24T09:28:12;15.05;;;13.88;;
74821;SDS011;63353;48.702;8.884;2023-08-24T09:30:38;13.95;;;12.95;;
74821;SDS011;63353;48.702;8.884;2023-08-24T09:33:04;15.27;;;13.90;;
74821;SDS011;63353;48.702;8.884;2023-08-24T09:35:35;15.07;;;14.07;;
74821;SDS011;63353;48.702;8.884;2023-08-24T09:38:15;14.35;;;13.35;;
74821;SDS011;63353;48.702;8.884;2023-08-24T09:40:44;14.07;;;13.02;;
74821;SDS011;63353;48.702;8.884;2023-08-24T09:43:12;14.70;;;13.48;;
74821;SDS011;63353;48.702;8.884;2023-08-24T09:45:47;15.10;;;13.85;;
74821;SDS011;63353;48.702;8.884;2023-08-24T09:48:16;14.40;;;13.30;;
74821;SDS011;63353;48.702;8.884;2023-08-24T09:50:42;15.38;;;14.18;;
74821;SDS011;63353;48.702;8.884;2023-08-24T09:53:13;15.05;;;14.05;;
74821;SDS011;63353;48.702;8.884;2023-08-24T09:56:18;15.50;;;14.30;;
74821;SDS011;63353;48.702;8.884;2023-08-24T09:58:45;15.50;;;14.40;;
74821;SDS011;63353;48.702;8.884;2023-08-24T10:01:12;14.80;;;13.85;;
74821;SDS011;63353;48.702;8.884;2023-08-24T10:03:40;15.27;;;14.18;;
74821;SDS011;63353;48.702;8.884;2023-08-24T10:06:06;16.30;;;15.02;;
74821;SDS011;63353;48.702;8.884;2023-08-24T10:08:36;14.25;;;13.25;;
74821;SDS011;63353;48.702;8.884;2023-08-24T10:11:04;14.30;;;13.30;;
74821;SDS011;63353;48.702;8.884;2023-08-24T10:13:50;15.25;;;14.25;;
74821;SDS011;63353;48.702;8.884;2023-08-24T10:16:24;15.95;;;14.95;;
74821;SDS011;63353;48.702;8.884;2023-08-24T10:18:51;15.55;;;14.55;;
74821;SDS011;63353;48.702;8.884;2023-08-24T10:21:18;16.13;;;14.93;;
74821;SDS011;63353;48.702;8.884;2023-08-24T10:23:44;15.93;;;14.93;;
74821;SDS011;63353;48.702;8.884;2023-08-24T10:26:11;16.02;;;14.63;;
74821;SDS011;63353;48.702;8.884;2023-08-24T10:28:38;15.30;;;14.10;;
74821;SDS011;63353;48.702;8.884;2023-08-24T10:31:04;15.30;;;14.05;;
74821;SDS011;63353;48.702;8.884;2023-08-24T10:33:31;14.65;;;13.40;;
74821;SDS011;63353;48.702;8.884;2023-08-24T10:35:59;14.23;;;12.85;;
74821;SDS011;63353;48.702;8.884;2023-08-24T10:38:29;14.75;;;13.70;;
74821;SDS011;63353;48.702;8.884;2023-08-24T10:41:01;18.50;;;13.45;;
74821;SDS011;63353;48.702;8.884;2023-08-24T10:43:35;15.60;;;14.40;;
74821;SDS011;63353;48.702;8.884;2023-08-24T10:46:03;14.32;;;13.23;;
74821;SDS011;63353;48.702;8.884;2023-08-24T10:53:46;15.98;;;14.60;;
74821;SDS011;63353;48.702;8.884;2023-08-24T10:56:17;15.18;;;14.07;;
74821;SDS011;63353;48.702;8.884;2023-08-24T10:58:43;16.35;;;14.77;;
74821;SDS011;63353;48.702;8.884;2023-08-24T11:01:19;15.50;;;14.20;;
74821;SDS011;63353;48.702;8.884;2023-08-24T11:03:49;15.50;;;14.20;;
74821;SDS011;63353;48.702;8.884;2023-08-24T11:06:22;15.60;;;14.40;;
74821;SDS011;63353;48.702;8.884;2023-08-24T11:08:57;15.43;;;14.32;;
74821;SDS011;63353;48.702;8.884;2023-08-24T11:11:32;15.65;;;14.48;;
74821;SDS011;63353;48.702;8.884;2023-08-24T11:14:16;15.63;;;14.32;;
74821;SDS011;63353;48.702;8.884;2023-08-24T11:16:54;15.82;;;14.73;;
74821;SDS011;63353;48.702;8.884;2023-08-24T11:20:01;16.50;;;15.20;;
74821;SDS011;63353;48.702;8.884;2023-08-24T11:22:28;15.13;;;14.07;;
74821;SDS011;63353;48.702;8.884;2023-08-24T11:24:55;16.15;;;14.73;;
74821;SDS011;63353;48.702;8.884;2023-08-24T11:27:23;15.13;;;14.05;;
74821;SDS011;63353;48.702;8.884;2023-08-24T11:29:57;14.85;;;13.75;;
74821;SDS011;63353;48.702;8.884;2023-08-24T11:32:24;15.63;;;14.32;;
74821;SDS011;63353;48.702;8.884;2023-08-24T11:35:02;16.33;;;14.98;;
74821;SDS011;63353;48.702;8.884;2023-08-24T11:37:28;15.98;;;14.50;;
74821;SDS011;63353;48.702;8.884;2023-08-24T11:39:54;16.33;;;15.00;;
74821;SDS011;63353;48.702;8.884;2023-08-24T11:42:20;15.35;;;14.10;;
74821;SDS011;63353;48.702;8.884;2023-08-24T11:44:46;15.15;;;14.05;;
74821;SDS011;63353;48.702;8.884;2023-08-24T11:47:12;14.85;;;13.75;;
74821;SDS011;63353;48.702;8.884;2023-08-24T11:49:38;15.02;;;13.93;;
74821;SDS011;63353;48.702;8.884;2023-08-24T11:52:04;14.88;;;13.77;;
74821;SDS011;63353;48.702;8.884;2023-08-24T11:54:35;14.48;;;13.57;;
74821;SDS011;63353;48.702;8.884;2023-08-24T11:57:06;15.80;;;14.45;;
74821;SDS011;63353;48.702;8.884;2023-08-24T11:59:33;14.60;;;13.45;;
74821;SDS011;63353;48.702;8.884;2023-08-24T12:02:02;14.82;;;13.68;;
74821;SDS011;63353;48.702;8.884;2023-08-24T12:04:37;14.38;;;13.27;;
74821;SDS011;63353;48.702;8.884;2023-08-24T12:07:11;14.52;;;13.30;;
74821;SDS011;63353;48.702;8.884;2023-08-24T12:09:37;14.73;;;13.48;;
74821;SDS011;63353;48.702;8.884;2023-08-24T12:12:16;15.07;;;13.98;;
74821;SDS011;63353;48.702;8.884;2023-08-24T12:14:44;14.50;;;13.35;;
74821;SDS011;63353;48.702;8.884;2023-08-24T12:17:11;14.98;;;13.73;;
74821;SDS011;63353;48.702;8.884;2023-08-24T12:19:42;14.18;;;12.98;;
74821;SDS011;63353;48.702;8.884;2023-08-24T12:22:21;15.77;;;14.32;;
74821;SDS011;63353;48.702;8.884;2023-08-24T12:24:47;15.05;;;13.80;;
74821;SDS011;63353;48.702;8.884;2023-08-24T12:27:28;14.63;;;13.43;;
74821;SDS011;63353;48.702;8.884;2023-08-24T12:29:54;14.98;;;13.88;;
74821;SDS011;63353;48.702;8.884;2023-08-24T12:32:20;14.27;;;13.02;;
74821;SDS011;63353;48.702;8.884;2023-08-24T12:34:48;14.18;;;12.75;;
74821;SDS011;63353;48.702;8.884;2023-08-24T12:37:16;13.25;;;12.20;;
74821;SDS011;63353;48.702;8.884;2023-08-24T12:39:51;14.35;;;13.15;;
74821;SDS011;63353;48.702;8.884;2023-08-24T12:42:19;13.77;;;12.52;;
74821;SDS011;63353;48.702;8.884;2023-08-24T12:44:48;13.57;;;12.40;;
74821;SDS011;63353;48.702;8.884;2023-08-24T12:47:20;14.65;;;13.27;;
74821;SDS011;63353;48.702;8.884;2023-08-24T12:49:46;14.05;;;12.57;;
74821;SDS011;63353;48.702;8.884;2023-08-24T12:52:18;14.60;;;13.00;;
74821;SDS011;63353;48.702;8.884;2023-08-24T12:54:50;14.18;;;12.90;;
74821;SDS011;63353;48.702;8.884;2023-08-24T12:57:15;13.52;;;12.20;;
74821;SDS011;63353;48.702;8.884;2023-08-24T12:59:41;13.00;;;11.93;;
74821;SDS011;63353;48.702;8.884;2023-08-24T13:02:06;13.45;;;12.25;;
74821;SDS011;63353;48.702;8.884;2023-08-24T13:04:32;14.15;;;12.90;;
74821;SDS011;63353;48.702;8.884;2023-08-24T13:07:01;13.73;;;12.52;;
74821;SDS011;63353;48.702;8.884;2023-08-24T13:09:27;12.52;;;11.38;;
74821;SDS011;63353;48.702;8.884;2023-08-24T13:11:56;12.60;;;11.50;;
74821;SDS011;63353;48.702;8.884;2023-08-24T13:14:25;14.00;;;12.65;;
74821;SDS011;63353;48.702;8.884;2023-08-24T13:16:56;12.80;;;11.55;;
74821;SDS011;63353;48.702;8.884;2023-08-24T13:19:25;13.50;;;12.40;;
74821;SDS011;63353;48.702;8.884;2023-08-24T13:21:50;13.35;;;12.20;;
74821;SDS011;63353;48.702;8.884;2023-08-24T13:24:16;14.20;;;12.85;;
74821;SDS011;63353;48.702;8.884;2023-08-24T13:26:42;12.98;;;11.90;;
74821;SDS011;63353;48.702;8.884;2023-08-24T13:29:07;13.88;;;12.60;;
74821;SDS011;63353;48.702;8.884;2023-08-24T13:31:33;14.00;;;12.48;;
74821;SDS011;63353;48.702;8.884;2023-08-24T13:34:00;13.23;;;12.02;;
74821;SDS011;63353;48.702;8.884;2023-08-24T13:36:25;13.10;;;11.98;;
74821;SDS011;63353;48.702;8.884;2023-08-24T13:38:51;14.30;;;12.90;;
74821;SDS011;63353;48.702;8.884;2023-08-24T13:41:17;12.73;;;11.73;;
74821;SDS011;63353;48.702;8.884;2023-08-24T13:43:43;13.23;;;11.82;;
74821;SDS011;63353;48.702;8.884;2023-08-24T13:46:09;13.80;;;12.70;;
74821;SDS011;63353;48.702;8.884;2023-08-24T13:48:35;13.65;;;12.57;;
74821;SDS011;63353;48.702;8.884;2023-08-24T13:51:04;13.07;;;11.85;;
74821;SDS011;63353;48.702;8.884;2023-08-24T13:53:29;13.38;;;12.02;;
74821;SDS011;63353;48.702;8.884;2023-08-24T13:55:55;13.20;;;12.10;;
74821;SDS011;63353;48.702;8.884;2023-08-24T13:58:20;13.25;;;12.15;;
74821;SDS011;63353;48.702;8.884;2023-08-24T14:00:56;14.45;;;13.20;;
74821;SDS011;63353;48.702;8.884;2023-08-24T14:03:22;14.52;;;13.23;;
74821;SDS011;63353;48.702;8.884;2023-08-24T14:05:55;15.88;;;14.20;;
74821;SDS011;63353;48.702;8.884;2023-08-24T14:08:21;14.40;;;12.98;;
74821;SDS011;63353;48.702;8.884;2023-08-24T14:10:51;14.13;;;12.75;;
74821;SDS011;63353;48.702;8.884;2023-08-24T14:13:17;15.30;;;13.77;;
74821;SDS011;63353;48.702;8.884;2023-08-24T14:15:49;14.88;;;13.35;;
74821;SDS011;63353;48.702;8.884;2023-08-24T14:18:20;14.20;;;12.90;;
74821;SDS011;63353;48.702;8.884;2023-08-24T14:20:49;14.23;;;12.88;;
74821;SDS011;63353;48.702;8.884;2023-08-24T14:23:17;14.50;;;13.20;;
74821;SDS011;63353;48.702;8.884;2023-08-24T14:25:44;14.57;;;13.38;;
74821;SDS011;63353;48.702;8.884;2023-08-24T14:28:11;14.43;;;13.20;;
74821;SDS011;63353;48.702;8.884;2023-08-24T14:30:46;15.50;;;14.15;;
74821;SDS011;63353;48.702;8.884;2023-08-24T14:33:18;15.35;;;13.82;;